sensor_id;sensor_type;location;lat;lon;timestamp;P1;durP1;ratioP1;P2;durP2;ratioP2
32874;SDS011;40468;42.128;24.750;2023-05-21T00:00:12;8.82;;;4.68;;
32874;SDS011;40468;42.128;24.750;2023-05-21T00:01:44;14.77;;;4.90;;
32874;SDS011;40468;42.128;24.750;2023-05-21T00:03:18;8.50;;;4.32;;
32874;SDS011;40468;42.128;24.750;2023-05-21T00:04:51;10.32;;;5.10;;
32874;SDS011;40468;42.128;24.750;2023-05-21T00:06:22;7.22;;;4.55;;
32874;SDS011;40468;42.128;24.750;2023-05-21T00:07:54;8.90;;;4.45;;
32874;SDS011;40468;42.128;24.750;2023-05-21T00:09:26;7.05;;;4.45;;
32874;SDS011;40468;42.128;24.750;2023-05-21T00:10:58;7.88;;;4.38;;
32874;SDS011;40468;42.128;24.750;2023-05-21T00:12:30;8.05;;;4.93;;
32874;SDS011;40468;42.128;24.750;2023-05-21T00:14:02;9.20;;;4.63;;
32874;SDS011;40468;42.128;24.750;2023-05-21T00:15:34;9.57;;;4.57;;
32874;SDS011;40468;42.128;24.750;2023-05-21T00:17:06;14.73;;;5.30;;
32874;SDS011;40468;42.128;24.750;2023-05-21T00:18:39;15.70;;;5.03;;
32874;SDS011;40468;42.128;24.750;2023-05-21T00:20:10;7.50;;;4.57;;
32874;SDS011;40468;42.128;24.750;2023-05-21T00:21:42;9.50;;;4.60;;
32874;SDS011;40468;42.128;24.750;2023-05-21T00:23:15;7.68;;;4.78;;
32874;SDS011;40468;42.128;24.750;2023-05-21T00:24:47;12.93;;;5.18;;
32874;SDS011;40468;42.128;24.750;2023-05-21T00:26:19;11.88;;;5.22;;
32874;SDS011;40468;42.128;24.750;2023-05-21T00:29:25;9.43;;;4.70;;
32874;SDS011;40468;42.128;24.750;2023-05-21T00:30:59;9.55;;;4.57;;
32874;SDS011;40468;42.128;24.750;2023-05-21T00:32:31;10.57;;;5.35;;
32874;SDS011;40468;42.128;24.750;2023-05-21T00:34:04;8.75;;;4.85;;
32874;SDS011;40468;42.128;24.750;2023-05-21T00:35:35;9.55;;;5.13;;
32874;SDS011;40468;42.128;24.750;2023-05-21T00:37:07;9.00;;;5.38;;
32874;SDS011;40468;42.128;24.750;2023-05-21T00:38:39;9.68;;;5.78;;
32874;SDS011;40468;42.128;24.750;2023-05-21T00:41:44;7.22;;;4.55;;
32874;SDS011;40468;42.128;24.750;2023-05-21T00:43:17;14.40;;;5.88;;
32874;SDS011;40468;42.128;24.750;2023-05-21T00:44:48;12.70;;;5.13;;
32874;SDS011;40468;42.128;24.750;2023-05-21T00:46:20;10.75;;;4.82;;
32874;SDS011;40468;42.128;24.750;2023-05-21T00:47:52;10.30;;;5.55;;
32874;SDS011;40468;42.128;24.750;2023-05-21T00:49:26;11.40;;;5.70;;
32874;SDS011;40468;42.128;24.750;2023-05-21T00:50:57;9.65;;;5.18;;
32874;SDS011;40468;42.128;24.750;2023-05-21T00:52:29;10.32;;;5.75;;
32874;SDS011;40468;42.128;24.750;2023-05-21T00:54:01;13.25;;;6.30;;
32874;SDS011;40468;42.128;24.750;2023-05-21T00:55:34;9.98;;;6.18;;
32874;SDS011;40468;42.128;24.750;2023-05-21T00:57:06;15.63;;;6.20;;
32874;SDS011;40468;42.128;24.750;2023-05-21T00:58:38;9.80;;;5.60;;
32874;SDS011;40468;42.128;24.750;2023-05-21T01:00:11;10.60;;;5.85;;
32874;SDS011;40468;42.128;24.750;2023-05-21T01:01:45;12.98;;;6.00;;
32874;SDS011;40468;42.128;24.750;2023-05-21T01:03:23;8.57;;;5.05;;
32874;SDS011;40468;42.128;24.750;2023-05-21T01:04:56;12.90;;;6.38;;
32874;SDS011;40468;42.128;24.750;2023-05-21T01:06:29;9.45;;;5.70;;
32874;SDS011;40468;42.128;24.750;2023-05-21T01:08:04;12.30;;;5.45;;
32874;SDS011;40468;42.128;24.750;2023-05-21T01:09:36;10.07;;;5.93;;
32874;SDS011;40468;42.128;24.750;2023-05-21T01:11:08;13.55;;;6.55;;
32874;SDS011;40468;42.128;24.750;2023-05-21T01:14:14;11.50;;;6.80;;
32874;SDS011;40468;42.128;24.750;2023-05-21T01:15:46;12.43;;;7.45;;
32874;SDS011;40468;42.128;24.750;2023-05-21T01:18:53;13.00;;;6.53;;
32874;SDS011;40468;42.128;24.750;2023-05-21T01:20:28;8.77;;;5.82;;
32874;SDS011;40468;42.128;24.750;2023-05-21T01:22:03;12.82;;;6.53;;
32874;SDS011;40468;42.128;24.750;2023-05-21T01:23:37;11.18;;;6.53;;
32874;SDS011;40468;42.128;24.750;2023-05-21T01:25:08;12.27;;;6.13;;
32874;SDS011;40468;42.128;24.750;2023-05-21T01:26:40;9.60;;;5.30;;
32874;SDS011;40468;42.128;24.750;2023-05-21T01:28:13;11.63;;;6.20;;
32874;SDS011;40468;42.128;24.750;2023-05-21T01:29:45;13.30;;;5.60;;
32874;SDS011;40468;42.128;24.750;2023-05-21T01:31:19;10.07;;;5.68;;
32874;SDS011;40468;42.128;24.750;2023-05-21T01:32:57;9.57;;;5.68;;
32874;SDS011;40468;42.128;24.750;2023-05-21T01:34:35;9.18;;;5.20;;
32874;SDS011;40468;42.128;24.750;2023-05-21T01:36:12;9.90;;;5.38;;
32874;SDS011;40468;42.128;24.750;2023-05-21T01:37:52;8.80;;;4.93;;
32874;SDS011;40468;42.128;24.750;2023-05-21T01:39:30;9.13;;;4.75;;
32874;SDS011;40468;42.128;24.750;2023-05-21T01:41:06;9.10;;;5.13;;
32874;SDS011;40468;42.128;24.750;2023-05-21T01:42:41;10.80;;;5.05;;
32874;SDS011;40468;42.128;24.750;2023-05-21T01:45:48;10.32;;;4.50;;
32874;SDS011;40468;42.128;24.750;2023-05-21T01:47:24;9.77;;;5.15;;
32874;SDS011;40468;42.128;24.750;2023-05-21T01:49:00;8.60;;;4.35;;
32874;SDS011;40468;42.128;24.750;2023-05-21T01:50:33;7.22;;;4.55;;
32874;SDS011;40468;42.128;24.750;2023-05-21T01:52:05;10.80;;;4.50;;
32874;SDS011;40468;42.128;24.750;2023-05-21T01:53:38;9.75;;;5.38;;
32874;SDS011;40468;42.128;24.750;2023-05-21T01:55:12;11.32;;;4.70;;
32874;SDS011;40468;42.128;24.750;2023-05-21T01:56:44;8.98;;;4.78;;
32874;SDS011;40468;42.128;24.750;2023-05-21T01:58:17;10.85;;;4.20;;
32874;SDS011;40468;42.128;24.750;2023-05-21T01:59:50;7.63;;;4.43;;
32874;SDS011;40468;42.128;24.750;2023-05-21T02:01:23;6.55;;;4.28;;
32874;SDS011;40468;42.128;24.750;2023-05-21T02:02:56;8.15;;;4.20;;
32874;SDS011;40468;42.128;24.750;2023-05-21T02:04:28;9.07;;;4.72;;
32874;SDS011;40468;42.128;24.750;2023-05-21T02:06:00;11.23;;;4.55;;
32874;SDS011;40468;42.128;24.750;2023-05-21T02:07:32;8.80;;;3.88;;
32874;SDS011;40468;42.128;24.750;2023-05-21T02:09:04;9.77;;;4.47;;
32874;SDS011;40468;42.128;24.750;2023-05-21T02:10:37;10.77;;;4.53;;
32874;SDS011;40468;42.128;24.750;2023-05-21T02:12:09;9.20;;;4.80;;
32874;SDS011;40468;42.128;24.750;2023-05-21T02:13:41;8.43;;;4.28;;
32874;SDS011;40468;42.128;24.750;2023-05-21T02:15:12;7.38;;;4.25;;
32874;SDS011;40468;42.128;24.750;2023-05-21T02:16:46;8.70;;;4.28;;
32874;SDS011;40468;42.128;24.750;2023-05-21T02:18:17;7.07;;;3.85;;
32874;SDS011;40468;42.128;24.750;2023-05-21T02:19:50;10.27;;;4.28;;
32874;SDS011;40468;42.128;24.750;2023-05-21T02:21:22;10.88;;;5.50;;
32874;SDS011;40468;42.128;24.750;2023-05-21T02:22:54;10.93;;;4.43;;
32874;SDS011;40468;42.128;24.750;2023-05-21T02:24:26;8.40;;;4.10;;
32874;SDS011;40468;42.128;24.750;2023-05-21T02:25:59;7.57;;;3.70;;
32874;SDS011;40468;42.128;24.750;2023-05-21T02:27:31;7.10;;;3.70;;
32874;SDS011;40468;42.128;24.750;2023-05-21T02:29:04;8.23;;;4.28;;
32874;SDS011;40468;42.128;24.750;2023-05-21T02:30:36;6.70;;;3.90;;
32874;SDS011;40468;42.128;24.750;2023-05-21T02:32:07;7.03;;;4.30;;
32874;SDS011;40468;42.128;24.750;2023-05-21T02:33:39;13.23;;;4.30;;
32874;SDS011;40468;42.128;24.750;2023-05-21T02:35:11;6.63;;;4.72;;
32874;SDS011;40468;42.128;24.750;2023-05-21T02:36:42;8.52;;;4.32;;
32874;SDS011;40468;42.128;24.750;2023-05-21T02:38:17;8.38;;;4.35;;
32874;SDS011;40468;42.128;24.750;2023-05-21T02:39:52;7.38;;;4.05;;
32874;SDS011;40468;42.128;24.750;2023-05-21T02:41:25;12.07;;;5.18;;
32874;SDS011;40468;42.128;24.750;2023-05-21T02:42:57;8.10;;;5.40;;
32874;SDS011;40468;42.128;24.750;2023-05-21T02:44:28;12.82;;;5.28;;
32874;SDS011;40468;42.128;24.750;2023-05-21T02:46:00;15.18;;;5.43;;
32874;SDS011;40468;42.128;24.750;2023-05-21T02:47:30;13.45;;;5.32;;
32874;SDS011;40468;42.128;24.750;2023-05-21T02:49:02;9.82;;;5.25;;
32874;SDS011;40468;42.128;24.750;2023-05-21T02:50:34;10.00;;;5.10;;
32874;SDS011;40468;42.128;24.750;2023-05-21T02:52:05;10.75;;;5.20;;
32874;SDS011;40468;42.128;24.750;2023-05-21T02:53:37;7.43;;;4.85;;
32874;SDS011;40468;42.128;24.750;2023-05-21T02:55:09;10.20;;;5.15;;
32874;SDS011;40468;42.128;24.750;2023-05-21T02:56:42;10.23;;;5.68;;
32874;SDS011;40468;42.128;24.750;2023-05-21T02:58:13;8.73;;;4.72;;
32874;SDS011;40468;42.128;24.750;2023-05-21T02:59:45;12.57;;;5.25;;
32874;SDS011;40468;42.128;24.750;2023-05-21T03:01:17;9.85;;;5.20;;
32874;SDS011;40468;42.128;24.750;2023-05-21T03:02:49;10.35;;;4.93;;
32874;SDS011;40468;42.128;24.750;2023-05-21T03:04:21;11.75;;;5.63;;
32874;SDS011;40468;42.128;24.750;2023-05-21T03:05:53;10.25;;;5.55;;
32874;SDS011;40468;42.128;24.750;2023-05-21T03:07:25;12.35;;;5.32;;
32874;SDS011;40468;42.128;24.750;2023-05-21T03:08:56;10.13;;;6.05;;
32874;SDS011;40468;42.128;24.750;2023-05-21T03:10:28;9.27;;;5.50;;
32874;SDS011;40468;42.128;24.750;2023-05-21T03:12:02;9.82;;;5.82;;
32874;SDS011;40468;42.128;24.750;2023-05-21T03:15:06;9.93;;;5.38;;
32874;SDS011;40468;42.128;24.750;2023-05-21T03:16:38;13.18;;;5.88;;
32874;SDS011;40468;42.128;24.750;2023-05-21T03:18:10;12.48;;;5.88;;
32874;SDS011;40468;42.128;24.750;2023-05-21T03:19:43;10.35;;;5.47;;
32874;SDS011;40468;42.128;24.750;2023-05-21T03:21:15;13.32;;;5.65;;
32874;SDS011;40468;42.128;24.750;2023-05-21T03:22:46;11.45;;;5.97;;
32874;SDS011;40468;42.128;24.750;2023-05-21T03:24:19;9.40;;;5.40;;
32874;SDS011;40468;42.128;24.750;2023-05-21T03:25:50;16.27;;;5.82;;
32874;SDS011;40468;42.128;24.750;2023-05-21T03:27:24;15.27;;;5.72;;
32874;SDS011;40468;42.128;24.750;2023-05-21T03:30:27;10.98;;;5.40;;
32874;SDS011;40468;42.128;24.750;2023-05-21T03:31:59;17.83;;;6.20;;
32874;SDS011;40468;42.128;24.750;2023-05-21T03:33:31;9.77;;;5.55;;
32874;SDS011;40468;42.128;24.750;2023-05-21T03:35:03;16.58;;;5.97;;
32874;SDS011;40468;42.128;24.750;2023-05-21T03:36:36;12.40;;;5.93;;
32874;SDS011;40468;42.128;24.750;2023-05-21T03:38:07;11.40;;;5.70;;
32874;SDS011;40468;42.128;24.750;2023-05-21T03:39:39;16.88;;;5.75;;
32874;SDS011;40468;42.128;24.750;2023-05-21T03:41:11;13.77;;;5.95;;
32874;SDS011;40468;42.128;24.750;2023-05-21T03:42:45;10.25;;;5.75;;
32874;SDS011;40468;42.128;24.750;2023-05-21T03:44:16;11.93;;;5.43;;
32874;SDS011;40468;42.128;24.750;2023-05-21T03:45:49;9.82;;;5.50;;
32874;SDS011;40468;42.128;24.750;2023-05-21T03:47:21;14.48;;;5.90;;
32874;SDS011;40468;42.128;24.750;2023-05-21T03:48:54;11.93;;;5.75;;
32874;SDS011;40468;42.128;24.750;2023-05-21T03:50:27;10.23;;;5.88;;
32874;SDS011;40468;42.128;24.750;2023-05-21T03:51:59;15.45;;;5.63;;
32874;SDS011;40468;42.128;24.750;2023-05-21T03:53:32;10.82;;;5.53;;
32874;SDS011;40468;42.128;24.750;2023-05-21T03:56:36;12.18;;;5.05;;
32874;SDS011;40468;42.128;24.750;2023-05-21T03:58:09;11.98;;;5.63;;
32874;SDS011;40468;42.128;24.750;2023-05-21T03:59:40;9.63;;;5.32;;
32874;SDS011;40468;42.128;24.750;2023-05-21T04:01:12;13.50;;;5.50;;
32874;SDS011;40468;42.128;24.750;2023-05-21T04:02:44;8.00;;;5.30;;
32874;SDS011;40468;42.128;24.750;2023-05-21T04:04:16;12.18;;;5.22;;
32874;SDS011;40468;42.128;24.750;2023-05-21T04:05:46;11.02;;;5.80;;
32874;SDS011;40468;42.128;24.750;2023-05-21T04:07:18;11.18;;;5.07;;
32874;SDS011;40468;42.128;24.750;2023-05-21T04:08:51;11.50;;;5.70;;
32874;SDS011;40468;42.128;24.750;2023-05-21T04:10:22;9.63;;;5.30;;
32874;SDS011;40468;42.128;24.750;2023-05-21T04:11:54;10.55;;;6.20;;
32874;SDS011;40468;42.128;24.750;2023-05-21T04:13:27;9.98;;;5.43;;
32874;SDS011;40468;42.128;24.750;2023-05-21T04:14:59;12.75;;;5.63;;
32874;SDS011;40468;42.128;24.750;2023-05-21T04:16:32;12.48;;;5.45;;
32874;SDS011;40468;42.128;24.750;2023-05-21T04:18:04;12.80;;;6.22;;
32874;SDS011;40468;42.128;24.750;2023-05-21T04:19:37;15.32;;;6.25;;
32874;SDS011;40468;42.128;24.750;2023-05-21T04:21:10;8.23;;;5.32;;
32874;SDS011;40468;42.128;24.750;2023-05-21T04:22:41;14.25;;;6.65;;
32874;SDS011;40468;42.128;24.750;2023-05-21T04:24:12;11.80;;;6.00;;
32874;SDS011;40468;42.128;24.750;2023-05-21T04:25:44;11.55;;;5.47;;
32874;SDS011;40468;42.128;24.750;2023-05-21T04:27:19;12.35;;;6.03;;
32874;SDS011;40468;42.128;24.750;2023-05-21T04:28:54;13.10;;;6.32;;
32874;SDS011;40468;42.128;24.750;2023-05-21T04:30:25;9.02;;;5.30;;
32874;SDS011;40468;42.128;24.750;2023-05-21T04:31:57;9.13;;;5.22;;
32874;SDS011;40468;42.128;24.750;2023-05-21T04:33:27;12.77;;;6.65;;
32874;SDS011;40468;42.128;24.750;2023-05-21T04:34:59;10.35;;;5.65;;
32874;SDS011;40468;42.128;24.750;2023-05-21T04:36:31;10.70;;;7.00;;
32874;SDS011;40468;42.128;24.750;2023-05-21T04:38:03;9.80;;;5.53;;
32874;SDS011;40468;42.128;24.750;2023-05-21T04:39:35;12.15;;;5.90;;
